sensor_id;sensor_type;location;lat;lon;timestamp;temperature;humidity
32334;DHT22;18810;53.040;8.850;2023-01-09T00:00:40;5.70;99.90
32334;DHT22;18810;53.040;8.850;2023-01-09T00:03:06;6.80;99.90
32334;DHT22;18810;53.040;8.850;2023-01-09T00:05:31;5.80;99.90
32334;DHT22;18810;53.040;8.850;2023-01-09T00:07:57;5.80;99.90
32334;DHT22;18810;53.040;8.850;2023-01-09T00:12:49;5.90;99.90
32334;DHT22;18810;53.040;8.850;2023-01-09T00:15:14;5.90;99.90
32334;DHT22;18810;53.040;8.850;2023-01-09T00:20:07;6.00;99.90
32334;DHT22;18810;53.040;8.850;2023-01-09T00:22:34;6.00;99.90
32334;DHT22;18810;53.040;8.850;2023-01-09T00:25:00;6.20;99.90
32334;DHT22;18810;53.040;8.850;2023-01-09T00:27:29;6.00;99.90
32334;DHT22;18810;53.040;8.850;2023-01-09T00:32:22;6.10;99.90
32334;DHT22;18810;53.040;8.850;2023-01-09T00:34:47;6.10;99.90
32334;DHT22;18810;53.040;8.850;2023-01-09T00:37:13;6.10;99.90
32334;DHT22;18810;53.040;8.850;2023-01-09T00:42:07;6.00;99.90
32334;DHT22;18810;53.040;8.850;2023-01-09T00:44:56;6.00;99.90
32334;DHT22;18810;53.040;8.850;2023-01-09T00:47:30;6.10;99.90
32334;DHT22;18810;53.040;8.850;2023-01-09T00:50:01;6.10;99.90
32334;DHT22;18810;53.040;8.850;2023-01-09T00:52:30;7.30;99.90
32334;DHT22;18810;53.040;8.850;2023-01-09T00:54:58;6.10;99.90
32334;DHT22;18810;53.040;8.850;2023-01-09T00:59:51;6.10;99.90
32334;DHT22;18810;53.040;8.850;2023-01-09T01:02:17;6.40;99.90
32334;DHT22;18810;53.040;8.850;2023-01-09T01:04:42;6.20;99.90
32334;DHT22;18810;53.040;8.850;2023-01-09T01:07:27;6.30;99.90
32334;DHT22;18810;53.040;8.850;2023-01-09T01:10:07;6.40;99.90
32334;DHT22;18810;53.040;8.850;2023-01-09T01:12:33;6.40;99.90
32334;DHT22;18810;53.040;8.850;2023-01-09T01:14:58;6.40;99.90
32334;DHT22;18810;53.040;8.850;2023-01-09T01:17:24;6.40;99.90
32334;DHT22;18810;53.040;8.850;2023-01-09T01:19:50;6.50;99.90
32334;DHT22;18810;53.040;8.850;2023-01-09T01:22:15;6.50;99.90
32334;DHT22;18810;53.040;8.850;2023-01-09T01:27:07;6.60;99.90
32334;DHT22;18810;53.040;8.850;2023-01-09T01:29:32;6.70;99.90
32334;DHT22;18810;53.040;8.850;2023-01-09T01:34:24;6.80;99.90
32334;DHT22;18810;53.040;8.850;2023-01-09T01:36:50;6.90;99.90
32334;DHT22;18810;53.040;8.850;2023-01-09T01:47:12;6.70;99.90
32334;DHT22;18810;53.040;8.850;2023-01-09T01:49:38;6.70;99.90
32334;DHT22;18810;53.040;8.850;2023-01-09T01:52:04;6.70;99.90
32334;DHT22;18810;53.040;8.850;2023-01-09T01:54:31;6.80;99.90
32334;DHT22;18810;53.040;8.850;2023-01-09T01:56:59;6.70;99.90
32334;DHT22;18810;53.040;8.850;2023-01-09T01:59:36;6.50;99.90
32334;DHT22;18810;53.040;8.850;2023-01-09T02:02:03;6.50;99.90
32334;DHT22;18810;53.040;8.850;2023-01-09T02:04:29;6.60;99.90
32334;DHT22;18810;53.040;8.850;2023-01-09T02:06:57;6.60;99.90
32334;DHT22;18810;53.040;8.850;2023-01-09T02:11:55;6.60;99.90
32334;DHT22;18810;53.040;8.850;2023-01-09T02:14:26;6.60;99.90
32334;DHT22;18810;53.040;8.850;2023-01-09T02:17:23;6.50;99.90
32334;DHT22;18810;53.040;8.850;2023-01-09T02:30:58;6.70;99.90
32334;DHT22;18810;53.040;8.850;2023-01-09T02:33:46;6.70;99.90
32334;DHT22;18810;53.040;8.850;2023-01-09T02:36:27;6.70;99.90
32334;DHT22;18810;53.040;8.850;2023-01-09T02:42:10;6.70;99.90
32334;DHT22;18810;53.040;8.850;2023-01-09T02:44:37;6.70;99.90
32334;DHT22;18810;53.040;8.850;2023-01-09T02:49:44;6.80;99.90
32334;DHT22;18810;53.040;8.850;2023-01-09T02:55:08;6.90;99.90
32334;DHT22;18810;53.040;8.850;2023-01-09T02:57:46;7.00;99.90
32334;DHT22;18810;53.040;8.850;2023-01-09T03:03:16;7.10;99.90
32334;DHT22;18810;53.040;8.850;2023-01-09T03:05:55;7.10;99.90
32334;DHT22;18810;53.040;8.850;2023-01-09T03:08:32;6.80;99.90
32334;DHT22;18810;53.040;8.850;2023-01-09T03:11:01;6.80;99.90
32334;DHT22;18810;53.040;8.850;2023-01-09T03:13:46;6.90;99.90
32334;DHT22;18810;53.040;8.850;2023-01-09T03:16:16;7.00;99.90
32334;DHT22;18810;53.040;8.850;2023-01-09T03:18:45;7.40;99.90
32334;DHT22;18810;53.040;8.850;2023-01-09T03:21:12;7.20;99.90
32334;DHT22;18810;53.040;8.850;2023-01-09T03:24:07;7.90;99.90
32334;DHT22;18810;53.040;8.850;2023-01-09T03:26:33;7.30;99.90
32334;DHT22;18810;53.040;8.850;2023-01-09T03:28:58;8.00;99.90
32334;DHT22;18810;53.040;8.850;2023-01-09T03:31:24;7.40;99.90
32334;DHT22;18810;53.040;8.850;2023-01-09T03:33:50;7.30;99.90
32334;DHT22;18810;53.040;8.850;2023-01-09T03:36:17;7.40;99.90
32334;DHT22;18810;53.040;8.850;2023-01-09T03:41:09;7.30;99.90
32334;DHT22;18810;53.040;8.850;2023-01-09T03:43:35;7.20;99.90
32334;DHT22;18810;53.040;8.850;2023-01-09T03:46:00;7.20;99.90
32334;DHT22;18810;53.040;8.850;2023-01-09T03:48:26;7.30;99.90
32334;DHT22;18810;53.040;8.850;2023-01-09T03:50:53;7.50;99.90
32334;DHT22;18810;53.040;8.850;2023-01-09T03:53:21;7.40;99.90
32334;DHT22;18810;53.040;8.850;2023-01-09T03:55:48;7.50;99.90
32334;DHT22;18810;53.040;8.850;2023-01-09T03:58:15;7.50;99.90
32334;DHT22;18810;53.040;8.850;2023-01-09T04:00:41;7.40;99.90
32334;DHT22;18810;53.040;8.850;2023-01-09T04:03:10;7.50;99.90
32334;DHT22;18810;53.040;8.850;2023-01-09T04:05:36;7.50;99.90
32334;DHT22;18810;53.040;8.850;2023-01-09T04:08:01;7.40;99.90
32334;DHT22;18810;53.040;8.850;2023-01-09T04:10:27;7.80;99.90
32334;DHT22;18810;53.040;8.850;2023-01-09T04:12:53;7.40;99.90
32334;DHT22;18810;53.040;8.850;2023-01-09T04:15:18;7.30;99.90
32334;DHT22;18810;53.040;8.850;2023-01-09T04:17:44;7.40;99.90
32334;DHT22;18810;53.040;8.850;2023-01-09T04:20:10;7.40;99.90
32334;DHT22;18810;53.040;8.850;2023-01-09T04:22:36;7.40;99.90
32334;DHT22;18810;53.040;8.850;2023-01-09T04:25:02;7.40;99.90
32334;DHT22;18810;53.040;8.850;2023-01-09T04:27:29;7.40;99.90
32334;DHT22;18810;53.040;8.850;2023-01-09T04:29:54;7.50;99.90
32334;DHT22;18810;53.040;8.850;2023-01-09T04:32:20;7.50;99.90
32334;DHT22;18810;53.040;8.850;2023-01-09T04:34:46;7.40;99.90
32334;DHT22;18810;53.040;8.850;2023-01-09T04:37:11;7.60;99.90
32334;DHT22;18810;53.040;8.850;2023-01-09T04:39:37;7.50;99.90
32334;DHT22;18810;53.040;8.850;2023-01-09T04:42:03;7.20;99.90
32334;DHT22;18810;53.040;8.850;2023-01-09T04:44:29;7.40;99.90
32334;DHT22;18810;53.040;8.850;2023-01-09T04:46:56;7.40;99.90
32334;DHT22;18810;53.040;8.850;2023-01-09T04:49:23;7.40;99.90
32334;DHT22;18810;53.040;8.850;2023-01-09T04:51:49;7.40;99.90
32334;DHT22;18810;53.040;8.850;2023-01-09T04:54:15;7.40;99.90
32334;DHT22;18810;53.040;8.850;2023-01-09T04:56:41;7.20;99.90
32334;DHT22;18810;53.040;8.850;2023-01-09T04:59:06;7.30;99.90
32334;DHT22;18810;53.040;8.850;2023-01-09T05:01:33;7.30;99.90
32334;DHT22;18810;53.040;8.850;2023-01-09T05:03:59;7.20;99.90
32334;DHT22;18810;53.040;8.850;2023-01-09T05:06:24;7.30;99.90
32334;DHT22;18810;53.040;8.850;2023-01-09T05:08:50;7.30;99.90
32334;DHT22;18810;53.040;8.850;2023-01-09T05:11:16;7.20;99.90
32334;DHT22;18810;53.040;8.850;2023-01-09T05:13:41;7.30;99.90
32334;DHT22;18810;53.040;8.850;2023-01-09T05:16:07;7.30;99.90
32334;DHT22;18810;53.040;8.850;2023-01-09T05:18:33;7.20;99.90
32334;DHT22;18810;53.040;8.850;2023-01-09T05:20:58;7.20;99.90
32334;DHT22;18810;53.040;8.850;2023-01-09T05:23:24;7.20;99.90
32334;DHT22;18810;53.040;8.850;2023-01-09T05:25:50;7.30;99.90
32334;DHT22;18810;53.040;8.850;2023-01-09T05:28:15;7.20;99.90
32334;DHT22;18810;53.040;8.850;2023-01-09T05:30:41;7.80;99.90
32334;DHT22;18810;53.040;8.850;2023-01-09T05:33:07;7.20;99.90
32334;DHT22;18810;53.040;8.850;2023-01-09T05:35:33;7.20;99.90
32334;DHT22;18810;53.040;8.850;2023-01-09T05:37:58;7.20;99.90
32334;DHT22;18810;53.040;8.850;2023-01-09T05:40:24;7.20;99.90
32334;DHT22;18810;53.040;8.850;2023-01-09T05:42:50;7.20;99.90
32334;DHT22;18810;53.040;8.850;2023-01-09T05:45:16;7.20;99.90
32334;DHT22;18810;53.040;8.850;2023-01-09T05:47:43;7.10;99.90
32334;DHT22;18810;53.040;8.850;2023-01-09T05:50:10;7.20;99.90
32334;DHT22;18810;53.040;8.850;2023-01-09T05:52:36;7.10;99.90
32334;DHT22;18810;53.040;8.850;2023-01-09T05:55:13;7.10;99.90
32334;DHT22;18810;53.040;8.850;2023-01-09T06:00:06;7.00;99.90
32334;DHT22;18810;53.040;8.850;2023-01-09T06:04:58;6.90;99.90
32334;DHT22;18810;53.040;8.850;2023-01-09T06:07:24;6.80;99.90
32334;DHT22;18810;53.040;8.850;2023-01-09T06:09:49;7.10;99.90
32334;DHT22;18810;53.040;8.850;2023-01-09T06:12:15;6.90;99.90
32334;DHT22;18810;53.040;8.850;2023-01-09T06:14:41;6.80;99.90
32334;DHT22;18810;53.040;8.850;2023-01-09T06:17:06;6.70;99.90
32334;DHT22;18810;53.040;8.850;2023-01-09T06:19:32;6.60;99.90
32334;DHT22;18810;53.040;8.850;2023-01-09T06:21:58;6.60;99.90
32334;DHT22;18810;53.040;8.850;2023-01-09T06:24:24;6.60;99.90
32334;DHT22;18810;53.040;8.850;2023-01-09T06:26:49;6.50;99.90
32334;DHT22;18810;53.040;8.850;2023-01-09T06:29:15;6.50;99.90
32334;DHT22;18810;53.040;8.850;2023-01-09T06:31:40;6.50;99.90
32334;DHT22;18810;53.040;8.850;2023-01-09T06:34:06;6.50;99.90
32334;DHT22;18810;53.040;8.850;2023-01-09T06:36:33;6.40;99.90
32334;DHT22;18810;53.040;8.850;2023-01-09T06:38:58;6.30;99.90
32334;DHT22;18810;53.040;8.850;2023-01-09T06:41:24;6.30;99.90
32334;DHT22;18810;53.040;8.850;2023-01-09T06:43:49;6.40;99.90
32334;DHT22;18810;53.040;8.850;2023-01-09T06:46:15;6.30;99.90
32334;DHT22;18810;53.040;8.850;2023-01-09T06:48:41;8.20;99.90
32334;DHT22;18810;53.040;8.850;2023-01-09T06:53:32;6.10;99.90
32334;DHT22;18810;53.040;8.850;2023-01-09T06:55:59;6.10;99.90
32334;DHT22;18810;53.040;8.850;2023-01-09T06:58:27;6.10;99.90
32334;DHT22;18810;53.040;8.850;2023-01-09T07:00:52;6.00;99.90
32334;DHT22;18810;53.040;8.850;2023-01-09T07:03:20;6.10;99.90
32334;DHT22;18810;53.040;8.850;2023-01-09T07:05:47;6.10;99.90
32334;DHT22;18810;53.040;8.850;2023-01-09T07:08:13;6.10;99.90
32334;DHT22;18810;53.040;8.850;2023-01-09T07:10:43;6.00;99.90
32334;DHT22;18810;53.040;8.850;2023-01-09T07:13:09;6.20;99.90
32334;DHT22;18810;53.040;8.850;2023-01-09T07:15:34;6.20;99.90
32334;DHT22;18810;53.040;8.850;2023-01-09T07:18:00;6.00;99.90
32334;DHT22;18810;53.040;8.850;2023-01-09T07:20:26;6.00;99.90
32334;DHT22;18810;53.040;8.850;2023-01-09T07:22:52;6.10;99.90
32334;DHT22;18810;53.040;8.850;2023-01-09T07:25:18;6.10;99.90
32334;DHT22;18810;53.040;8.850;2023-01-09T07:27:44;6.20;99.90
32334;DHT22;18810;53.040;8.850;2023-01-09T07:30:10;6.00;99.90
32334;DHT22;18810;53.040;8.850;2023-01-09T07:32:36;5.80;99.90
32334;DHT22;18810;53.040;8.850;2023-01-09T07:35:03;5.80;99.90
32334;DHT22;18810;53.040;8.850;2023-01-09T07:37:28;5.70;99.90
32334;DHT22;18810;53.040;8.850;2023-01-09T07:39:54;5.80;99.90
32334;DHT22;18810;53.040;8.850;2023-01-09T07:42:20;5.70;99.90
32334;DHT22;18810;53.040;8.850;2023-01-09T07:44:45;5.70;99.90
32334;DHT22;18810;53.040;8.850;2023-01-09T07:47:11;5.80;99.90
32334;DHT22;18810;53.040;8.850;2023-01-09T07:49:36;5.80;99.90
32334;DHT22;18810;53.040;8.850;2023-01-09T07:52:02;5.60;99.90
32334;DHT22;18810;53.040;8.850;2023-01-09T07:54:29;5.70;99.90
32334;DHT22;18810;53.040;8.850;2023-01-09T07:56:55;5.70;99.90
32334;DHT22;18810;53.040;8.850;2023-01-09T07:59:21;5.70;99.90
32334;DHT22;18810;53.040;8.850;2023-01-09T08:01:46;6.50;99.90
32334;DHT22;18810;53.040;8.850;2023-01-09T08:04:12;6.90;99.90
32334;DHT22;18810;53.040;8.850;2023-01-09T08:06:38;5.90;99.90
32334;DHT22;18810;53.040;8.850;2023-01-09T08:09:03;6.10;99.90
32334;DHT22;18810;53.040;8.850;2023-01-09T08:13:56;6.10;99.90
32334;DHT22;18810;53.040;8.850;2023-01-09T08:16:22;6.40;99.90
32334;DHT22;18810;53.040;8.850;2023-01-09T08:18:47;6.40;99.90
32334;DHT22;18810;53.040;8.850;2023-01-09T08:21:13;7.30;99.90
32334;DHT22;18810;53.040;8.850;2023-01-09T08:23:39;7.70;99.90
32334;DHT22;18810;53.040;8.850;2023-01-09T08:26:04;6.60;99.90
32334;DHT22;18810;53.040;8.850;2023-01-09T08:28:31;6.30;99.90
32334;DHT22;18810;53.040;8.850;2023-01-09T08:30:56;6.40;99.90
32334;DHT22;18810;53.040;8.850;2023-01-09T08:33:22;6.40;99.90
32334;DHT22;18810;53.040;8.850;2023-01-09T08:35:48;6.50;99.90
32334;DHT22;18810;53.040;8.850;2023-01-09T08:38:13;6.50;99.90
32334;DHT22;18810;53.040;8.850;2023-01-09T08:40:39;6.50;99.90
32334;DHT22;18810;53.040;8.850;2023-01-09T08:43:05;6.60;99.90
32334;DHT22;18810;53.040;8.850;2023-01-09T08:45:50;6.50;99.90
32334;DHT22;18810;53.040;8.850;2023-01-09T08:48:34;6.40;99.90
32334;DHT22;18810;53.040;8.850;2023-01-09T08:50:59;6.50;99.90
32334;DHT22;18810;53.040;8.850;2023-01-09T08:53:25;6.70;99.90
32334;DHT22;18810;53.040;8.850;2023-01-09T08:55:51;6.80;99.90
32334;DHT22;18810;53.040;8.850;2023-01-09T08:58:16;7.00;99.90
32334;DHT22;18810;53.040;8.850;2023-01-09T09:00:42;7.20;99.90
32334;DHT22;18810;53.040;8.850;2023-01-09T09:03:08;7.10;99.90
32334;DHT22;18810;53.040;8.850;2023-01-09T09:05:34;7.30;99.90
32334;DHT22;18810;53.040;8.850;2023-01-09T09:08:00;7.20;99.90
32334;DHT22;18810;53.040;8.850;2023-01-09T09:10:28;7.10;99.90
32334;DHT22;18810;53.040;8.850;2023-01-09T09:12:55;7.10;99.90
32334;DHT22;18810;53.040;8.850;2023-01-09T09:15:22;7.20;99.90
32334;DHT22;18810;53.040;8.850;2023-01-09T09:17:59;7.30;99.90
32334;DHT22;18810;53.040;8.850;2023-01-09T09:20:27;7.40;99.90
32334;DHT22;18810;53.040;8.850;2023-01-09T09:22:53;7.20;99.90
32334;DHT22;18810;53.040;8.850;2023-01-09T09:25:19;7.30;99.90
32334;DHT22;18810;53.040;8.850;2023-01-09T09:27:45;7.30;99.90
32334;DHT22;18810;53.040;8.850;2023-01-09T09:30:13;7.30;99.90
32334;DHT22;18810;53.040;8.850;2023-01-09T09:32:39;7.30;99.90
32334;DHT22;18810;53.040;8.850;2023-01-09T09:35:07;7.40;99.90
32334;DHT22;18810;53.040;8.850;2023-01-09T09:37:34;7.50;99.90
32334;DHT22;18810;53.040;8.850;2023-01-09T09:40:00;7.50;99.90
32334;DHT22;18810;53.040;8.850;2023-01-09T09:48:34;8.40;99.90
32334;DHT22;18810;53.040;8.850;2023-01-09T09:56:35;8.60;99.90
32334;DHT22;18810;53.040;8.850;2023-01-09T09:59:10;8.70;99.90
32334;DHT22;18810;53.040;8.850;2023-01-09T10:01:59;9.00;99.90
32334;DHT22;18810;53.040;8.850;2023-01-09T10:04:27;8.90;99.90
32334;DHT22;18810;53.040;8.850;2023-01-09T10:07:04;8.90;99.90
32334;DHT22;18810;53.040;8.850;2023-01-09T10:09:49;8.70;99.90
32334;DHT22;18810;53.040;8.850;2023-01-09T10:12:28;8.60;99.90
32334;DHT22;18810;53.040;8.850;2023-01-09T10:15:08;8.40;99.90
32334;DHT22;18810;53.040;8.850;2023-01-09T10:18:15;8.20;99.90
32334;DHT22;18810;53.040;8.850;2023-01-09T10:20:58;8.10;99.90
32334;DHT22;18810;53.040;8.850;2023-01-09T10:26:45;8.10;99.90
32334;DHT22;18810;53.040;8.850;2023-01-09T10:30:04;8.30;99.90
32334;DHT22;18810;53.040;8.850;2023-01-09T10:32:23;8.40;99.90
32334;DHT22;18810;53.040;8.850;2023-01-09T10:37:57;8.20;99.90
32334;DHT22;18810;53.040;8.850;2023-01-09T10:40:31;8.10;99.90
32334;DHT22;18810;53.040;8.850;2023-01-09T10:43:06;8.20;99.90
32334;DHT22;18810;53.040;8.850;2023-01-09T10:45:43;8.40;99.90
32334;DHT22;18810;53.040;8.850;2023-01-09T10:48:34;8.50;99.90
32334;DHT22;18810;53.040;8.850;2023-01-09T10:51:36;8.50;99.90
32334;DHT22;18810;53.040;8.850;2023-01-09T10:53:54;8.70;99.90
32334;DHT22;18810;53.040;8.850;2023-01-09T10:56:26;8.90;99.90
32334;DHT22;18810;53.040;8.850;2023-01-09T10:58:53;8.80;99.90
32334;DHT22;18810;53.040;8.850;2023-01-09T11:01:24;9.00;99.90
32334;DHT22;18810;53.040;8.850;2023-01-09T11:03:51;9.10;99.90
32334;DHT22;18810;53.040;8.850;2023-01-09T11:06:35;9.20;99.90
32334;DHT22;18810;53.040;8.850;2023-01-09T11:09:02;9.20;99.90
32334;DHT22;18810;53.040;8.850;2023-01-09T11:11:39;9.20;99.90
32334;DHT22;18810;53.040;8.850;2023-01-09T11:14:11;9.00;99.90
32334;DHT22;18810;53.040;8.850;2023-01-09T11:16:59;8.90;99.90
32334;DHT22;18810;53.040;8.850;2023-01-09T11:19:26;8.90;99.90
32334;DHT22;18810;53.040;8.850;2023-01-09T11:22:16;9.10;99.90
32334;DHT22;18810;53.040;8.850;2023-01-09T11:24:42;9.10;99.90
32334;DHT22;18810;53.040;8.850;2023-01-09T11:27:22;9.10;99.90
32334;DHT22;18810;53.040;8.850;2023-01-09T11:32:33;8.90;99.90
32334;DHT22;18810;53.040;8.850;2023-01-09T11:34:59;8.70;99.90
32334;DHT22;18810;53.040;8.850;2023-01-09T11:37:29;8.50;99.90
32334;DHT22;18810;53.040;8.850;2023-01-09T11:39:58;8.50;99.90
32334;DHT22;18810;53.040;8.850;2023-01-09T11:42:26;8.40;99.90
32334;DHT22;18810;53.040;8.850;2023-01-09T11:45:24;8.40;99.90
32334;DHT22;18810;53.040;8.850;2023-01-09T11:47:51;8.30;99.90
32334;DHT22;18810;53.040;8.850;2023-01-09T11:50:26;8.30;99.90
32334;DHT22;18810;53.040;8.850;2023-01-09T11:53:15;8.30;99.90
32334;DHT22;18810;53.040;8.850;2023-01-09T11:55:42;8.10;99.90
32334;DHT22;18810;53.040;8.850;2023-01-09T11:58:19;8.10;99.90
32334;DHT22;18810;53.040;8.850;2023-01-09T12:09:05;8.10;99.90
32334;DHT22;18810;53.040;8.850;2023-01-09T12:14:40;8.20;99.90
32334;DHT22;18810;53.040;8.850;2023-01-09T12:25:52;8.00;99.90
32334;DHT22;18810;53.040;8.850;2023-01-09T12:34:23;8.10;99.90
32334;DHT22;18810;53.040;8.850;2023-01-09T12:40:10;8.20;99.90
32334;DHT22;18810;53.040;8.850;2023-01-09T12:56:50;8.20;99.90
32334;DHT22;18810;53.040;8.850;2023-01-09T13:01:48;8.20;99.90
32334;DHT22;18810;53.040;8.850;2023-01-09T13:04:26;8.20;99.90
32334;DHT22;18810;53.040;8.850;2023-01-09T13:06:57;8.10;99.90
32334;DHT22;18810;53.040;8.850;2023-01-09T13:09:37;8.10;99.90
32334;DHT22;18810;53.040;8.850;2023-01-09T13:12:18;8.10;99.90
32334;DHT22;18810;53.040;8.850;2023-01-09T13:15:06;8.10;99.90
32334;DHT22;18810;53.040;8.850;2023-01-09T13:17:39;8.00;99.90
32334;DHT22;18810;53.040;8.850;2023-01-09T13:20:22;7.90;99.90
32334;DHT22;18810;53.040;8.850;2023-01-09T13:22:50;7.90;99.90
32334;DHT22;18810;53.040;8.850;2023-01-09T13:27:58;7.80;99.90
32334;DHT22;18810;53.040;8.850;2023-01-09T13:30:54;7.80;99.90
32334;DHT22;18810;53.040;8.850;2023-01-09T13:33:33;7.70;99.90
32334;DHT22;18810;53.040;8.850;2023-01-09T13:36:00;7.60;99.90
32334;DHT22;18810;53.040;8.850;2023-01-09T13:38:29;7.70;99.90
32334;DHT22;18810;53.040;8.850;2023-01-09T13:41:12;7.70;99.90
32334;DHT22;18810;53.040;8.850;2023-01-09T13:44:02;7.60;99.90
32334;DHT22;18810;53.040;8.850;2023-01-09T13:46:41;7.70;99.90
32334;DHT22;18810;53.040;8.850;2023-01-09T13:49:30;7.80;99.90
32334;DHT22;18810;53.040;8.850;2023-01-09T13:52:04;7.80;99.90
32334;DHT22;18810;53.040;8.850;2023-01-09T13:57:27;7.80;99.90
32334;DHT22;18810;53.040;8.850;2023-01-09T13:59:53;7.90;99.90
32334;DHT22;18810;53.040;8.850;2023-01-09T14:05:02;8.00;99.90
32334;DHT22;18810;53.040;8.850;2023-01-09T14:07:32;8.00;99.90
32334;DHT22;18810;53.040;8.850;2023-01-09T14:10:03;8.10;99.90
32334;DHT22;18810;53.040;8.850;2023-01-09T14:12:36;8.10;99.90
32334;DHT22;18810;53.040;8.850;2023-01-09T14:15:03;8.10;99.90
32334;DHT22;18810;53.040;8.850;2023-01-09T14:17:32;8.10;99.90
32334;DHT22;18810;53.040;8.850;2023-01-09T14:20:02;8.10;99.90
32334;DHT22;18810;53.040;8.850;2023-01-09T14:22:31;8.10;99.90
32334;DHT22;18810;53.040;8.850;2023-01-09T14:25:06;8.00;99.90
32334;DHT22;18810;53.040;8.850;2023-01-09T14:30:28;7.90;99.90
32334;DHT22;18810;53.040;8.850;2023-01-09T14:33:44;7.90;99.90
32334;DHT22;18810;53.040;8.850;2023-01-09T14:36:16;7.90;99.90
32334;DHT22;18810;53.040;8.850;2023-01-09T14:38:53;7.90;99.90
32334;DHT22;18810;53.040;8.850;2023-01-09T14:46:44;7.70;99.90
32334;DHT22;18810;53.040;8.850;2023-01-09T14:49:38;7.60;99.90
32334;DHT22;18810;53.040;8.850;2023-01-09T14:52:28;7.60;99.90
32334;DHT22;18810;53.040;8.850;2023-01-09T14:55:00;7.60;99.90
32334;DHT22;18810;53.040;8.850;2023-01-09T14:57:31;7.60;99.90
32334;DHT22;18810;53.040;8.850;2023-01-09T15:00:14;7.60;99.90
32334;DHT22;18810;53.040;8.850;2023-01-09T15:02:40;7.60;99.90
32334;DHT22;18810;53.040;8.850;2023-01-09T15:05:16;7.70;99.90
32334;DHT22;18810;53.040;8.850;2023-01-09T15:07:55;7.70;99.90
32334;DHT22;18810;53.040;8.850;2023-01-09T15:10:34;7.60;99.90
32334;DHT22;18810;53.040;8.850;2023-01-09T15:13:05;7.60;99.90
32334;DHT22;18810;53.040;8.850;2023-01-09T15:15:32;7.60;99.90
32334;DHT22;18810;53.040;8.850;2023-01-09T15:18:03;7.50;99.90
32334;DHT22;18810;53.040;8.850;2023-01-09T15:20:31;7.40;99.90
32334;DHT22;18810;53.040;8.850;2023-01-09T15:22:59;7.40;99.90
32334;DHT22;18810;53.040;8.850;2023-01-09T15:27:56;7.20;99.90
32334;DHT22;18810;53.040;8.850;2023-01-09T15:30:31;7.20;99.90
32334;DHT22;18810;53.040;8.850;2023-01-09T15:33:11;7.20;99.90
32334;DHT22;18810;53.040;8.850;2023-01-09T15:35:43;7.20;99.90
32334;DHT22;18810;53.040;8.850;2023-01-09T15:38:22;7.20;99.90
32334;DHT22;18810;53.040;8.850;2023-01-09T15:41:22;7.20;99.90
32334;DHT22;18810;53.040;8.850;2023-01-09T15:44:22;7.20;99.90
32334;DHT22;18810;53.040;8.850;2023-01-09T15:46:50;7.20;99.90
32334;DHT22;18810;53.040;8.850;2023-01-09T15:49:17;7.20;99.90
32334;DHT22;18810;53.040;8.850;2023-01-09T15:51:44;7.20;99.90
32334;DHT22;18810;53.040;8.850;2023-01-09T15:54:17;7.10;99.90
32334;DHT22;18810;53.040;8.850;2023-01-09T15:56:45;7.20;99.90
32334;DHT22;18810;53.040;8.850;2023-01-09T15:59:26;7.20;99.90
32334;DHT22;18810;53.040;8.850;2023-01-09T16:01:59;7.20;99.90
32334;DHT22;18810;53.040;8.850;2023-01-09T16:04:45;7.10;99.90
32334;DHT22;18810;53.040;8.850;2023-01-09T16:07:13;7.10;99.90
32334;DHT22;18810;53.040;8.850;2023-01-09T16:09:46;7.10;99.90
32334;DHT22;18810;53.040;8.850;2023-01-09T16:12:21;7.20;99.90
32334;DHT22;18810;53.040;8.850;2023-01-09T16:14:55;7.20;99.90
32334;DHT22;18810;53.040;8.850;2023-01-09T16:17:23;7.20;99.90
32334;DHT22;18810;53.040;8.850;2023-01-09T16:22:22;7.10;99.90
32334;DHT22;18810;53.040;8.850;2023-01-09T16:24:49;7.20;99.90
32334;DHT22;18810;53.040;8.850;2023-01-09T16:27:32;7.10;99.90
32334;DHT22;18810;53.040;8.850;2023-01-09T16:30:00;7.10;99.90
32334;DHT22;18810;53.040;8.850;2023-01-09T16:32:29;7.10;99.90
32334;DHT22;18810;53.040;8.850;2023-01-09T16:34:57;7.10;99.90
32334;DHT22;18810;53.040;8.850;2023-01-09T16:37:24;7.10;99.90
32334;DHT22;18810;53.040;8.850;2023-01-09T16:40:21;7.10;99.90
32334;DHT22;18810;53.040;8.850;2023-01-09T16:42:58;7.20;99.90
32334;DHT22;18810;53.040;8.850;2023-01-09T16:47:55;7.10;99.90
32334;DHT22;18810;53.040;8.850;2023-01-09T16:50:22;7.00;99.90
32334;DHT22;18810;53.040;8.850;2023-01-09T16:52:49;7.10;99.90
32334;DHT22;18810;53.040;8.850;2023-01-09T16:55:15;7.10;99.90
32334;DHT22;18810;53.040;8.850;2023-01-09T16:57:41;7.10;99.90
32334;DHT22;18810;53.040;8.850;2023-01-09T17:00:14;7.20;99.90
32334;DHT22;18810;53.040;8.850;2023-01-09T17:02:39;7.20;99.90
32334;DHT22;18810;53.040;8.850;2023-01-09T17:05:05;7.20;99.90
32334;DHT22;18810;53.040;8.850;2023-01-09T17:07:31;7.20;99.90
32334;DHT22;18810;53.040;8.850;2023-01-09T17:09:58;7.10;99.90
32334;DHT22;18810;53.040;8.850;2023-01-09T17:12:25;7.20;99.90
32334;DHT22;18810;53.040;8.850;2023-01-09T17:14:52;7.30;99.90
32334;DHT22;18810;53.040;8.850;2023-01-09T17:17:18;7.30;99.90
32334;DHT22;18810;53.040;8.850;2023-01-09T17:19:45;7.20;99.90
32334;DHT22;18810;53.040;8.850;2023-01-09T17:22:11;7.30;99.90
32334;DHT22;18810;53.040;8.850;2023-01-09T17:24:37;7.30;99.90
32334;DHT22;18810;53.040;8.850;2023-01-09T17:27:26;7.30;99.90
32334;DHT22;18810;53.040;8.850;2023-01-09T17:30:12;7.30;99.90
32334;DHT22;18810;53.040;8.850;2023-01-09T17:32:38;7.30;99.90
32334;DHT22;18810;53.040;8.850;2023-01-09T17:35:03;7.30;99.90
32334;DHT22;18810;53.040;8.850;2023-01-09T17:37:29;7.30;99.90
32334;DHT22;18810;53.040;8.850;2023-01-09T17:39:55;7.30;99.90
32334;DHT22;18810;53.040;8.850;2023-01-09T17:42:25;7.30;99.90
32334;DHT22;18810;53.040;8.850;2023-01-09T17:44:51;7.30;99.90
32334;DHT22;18810;53.040;8.850;2023-01-09T17:47:20;7.20;99.90
32334;DHT22;18810;53.040;8.850;2023-01-09T17:49:46;7.20;99.90
32334;DHT22;18810;53.040;8.850;2023-01-09T17:52:11;7.30;99.90
32334;DHT22;18810;53.040;8.850;2023-01-09T17:54:37;7.30;99.90
32334;DHT22;18810;53.040;8.850;2023-01-09T17:57:03;7.30;99.90
32334;DHT22;18810;53.040;8.850;2023-01-09T17:59:29;7.30;99.90
32334;DHT22;18810;53.040;8.850;2023-01-09T18:01:55;7.30;99.90
32334;DHT22;18810;53.040;8.850;2023-01-09T18:04:20;7.40;99.90
32334;DHT22;18810;53.040;8.850;2023-01-09T18:06:46;7.30;99.90
32334;DHT22;18810;53.040;8.850;2023-01-09T18:09:15;7.20;99.90
32334;DHT22;18810;53.040;8.850;2023-01-09T18:11:45;7.20;99.90
32334;DHT22;18810;53.040;8.850;2023-01-09T18:16:38;7.10;99.90
32334;DHT22;18810;53.040;8.850;2023-01-09T18:19:04;7.10;99.90
32334;DHT22;18810;53.040;8.850;2023-01-09T18:21:30;7.10;99.90
32334;DHT22;18810;53.040;8.850;2023-01-09T18:23:56;7.20;99.90
32334;DHT22;18810;53.040;8.850;2023-01-09T18:26:22;7.20;99.90
32334;DHT22;18810;53.040;8.850;2023-01-09T18:28:59;7.10;99.90
32334;DHT22;18810;53.040;8.850;2023-01-09T18:31:26;7.20;99.90
32334;DHT22;18810;53.040;8.850;2023-01-09T18:33:54;7.20;99.90
32334;DHT22;18810;53.040;8.850;2023-01-09T18:36:24;7.30;99.90
32334;DHT22;18810;53.040;8.850;2023-01-09T18:38:54;7.20;99.90